createdAt,value
2023-02-13T00:02:33.054Z,9.53
2023-02-13T00:05:20.477Z,9.90
2023-02-13T00:08:07.876Z,9.17
2023-02-13T00:10:56.075Z,9.87
2023-02-13T00:13:44.017Z,10.17
2023-02-13T00:16:31.451Z,10.83
2023-02-13T00:19:19.114Z,11.03
2023-02-13T00:22:06.800Z,10.60
2023-02-13T00:24:54.190Z,11.67
2023-02-13T00:27:42.088Z,9.80
2023-02-13T00:30:29.954Z,10.83
2023-02-13T00:33:17.372Z,10.93
2023-02-13T00:36:06.488Z,10.83
2023-02-13T00:38:54.616Z,11.17
2023-02-13T00:41:42.458Z,11.07
2023-02-13T00:44:29.930Z,10.30
2023-02-13T00:47:17.827Z,12.00
2023-02-13T00:50:05.561Z,11.80
2023-02-13T00:52:53.466Z,12.43
2023-02-13T00:55:40.882Z,11.47
2023-02-13T00:58:28.948Z,10.40
2023-02-13T01:01:16.893Z,10.63
2023-02-13T01:04:04.782Z,12.53
2023-02-13T01:06:52.201Z,10.90
2023-02-13T01:09:40.130Z,11.63
2023-02-13T01:12:27.521Z,12.57
2023-02-13T01:15:15.432Z,12.27
2023-02-13T01:18:03.280Z,12.83
2023-02-13T01:21:05.468Z,11.73
2023-02-13T01:23:52.901Z,11.33
2023-02-13T01:26:40.318Z,11.30
2023-02-13T01:29:27.714Z,12.87
2023-02-13T01:32:15.747Z,13.10
2023-02-13T01:35:03.205Z,12.07
2023-02-13T01:37:51.177Z,11.63
2023-02-13T01:40:44.781Z,12.90
2023-02-13T01:43:46.097Z,12.60
2023-02-13T01:46:36.144Z,11.47
2023-02-13T01:49:26.382Z,13.67
2023-02-13T01:52:14.395Z,12.00
2023-02-13T01:55:02.301Z,13.13
2023-02-13T01:57:53.833Z,13.17
2023-02-13T02:00:41.372Z,12.53
2023-02-13T02:03:34.545Z,12.40
2023-02-13T02:06:24.529Z,13.00
2023-02-13T02:09:23.215Z,12.53
2023-02-13T02:12:29.936Z,11.90
2023-02-13T02:15:17.985Z,12.73
2023-02-13T02:18:31.751Z,13.57
2023-02-13T02:21:22.438Z,13.33
2023-02-13T02:24:09.935Z,13.27
2023-02-13T02:26:57.811Z,13.57
2023-02-13T02:30:03.507Z,13.87
2023-02-13T02:33:03.834Z,13.00
2023-02-13T02:36:01.945Z,12.50
2023-02-13T02:38:59.461Z,13.00
2023-02-13T02:42:08.089Z,13.10
2023-02-13T02:45:01.731Z,12.90
2023-02-13T02:48:13.816Z,12.90
2023-02-13T02:51:13.551Z,12.90
2023-02-13T02:54:24.000Z,12.87
2023-02-13T02:57:14.675Z,12.60
2023-02-13T03:00:21.224Z,13.10
2023-02-13T03:03:34.409Z,13.67
2023-02-13T03:06:22.273Z,11.63
2023-02-13T03:09:31.769Z,11.97
2023-02-13T03:12:40.308Z,11.77
2023-02-13T03:15:28.369Z,12.63
2023-02-13T03:18:34.529Z,11.17
2023-02-13T03:22:01.129Z,11.30
2023-02-13T03:24:54.507Z,12.03
2023-02-13T03:28:24.970Z,12.83
2023-02-13T03:31:15.761Z,12.57
2023-02-13T03:34:07.023Z,11.70
2023-02-13T03:37:16.388Z,11.47
2023-02-13T03:40:06.393Z,11.07
2023-02-13T03:42:56.565Z,12.77
2023-02-13T03:45:53.337Z,11.47
2023-02-13T03:49:01.120Z,11.33
2023-02-13T03:51:52.117Z,9.57
2023-02-13T03:55:02.447Z,9.87
2023-02-13T03:58:10.396Z,8.50
2023-02-13T04:01:00.245Z,9.83
2023-02-13T04:03:57.722Z,9.53
2023-02-13T04:07:11.250Z,9.80
2023-02-13T04:10:13.900Z,10.27
2023-02-13T04:13:01.795Z,9.60
2023-02-13T04:15:56.335Z,9.10
2023-02-13T04:18:44.552Z,9.23
2023-02-13T04:21:34.271Z,8.67
2023-02-13T04:24:22.240Z,8.97
2023-02-13T04:27:12.376Z,9.13
2023-02-13T04:30:00.277Z,9.90
2023-02-13T04:32:47.815Z,8.63
2023-02-13T04:35:35.985Z,8.53
2023-02-13T04:38:23.412Z,10.53
2023-02-13T04:41:10.850Z,10.43
2023-02-13T04:43:59.046Z,10.27
2023-02-13T04:46:47.006Z,10.93
2023-02-13T04:49:34.456Z,9.27
2023-02-13T04:52:22.361Z,10.53
2023-02-13T04:55:09.785Z,10.20
2023-02-13T04:57:58.029Z,10.57
2023-02-13T05:00:45.444Z,11.27
2023-02-13T05:03:33.342Z,11.83
2023-02-13T05:06:20.823Z,11.67
2023-02-13T05:09:08.248Z,11.20
2023-02-13T05:11:56.228Z,12.27
2023-02-13T05:14:43.624Z,12.17
2023-02-13T05:17:31.509Z,11.13
2023-02-13T05:20:19.856Z,11.93
2023-02-13T05:23:22.991Z,11.63
2023-02-13T05:26:10.876Z,12.13
2023-02-13T05:29:17.125Z,12.43
2023-02-13T05:32:05.178Z,12.23
2023-02-13T05:34:52.819Z,11.53
2023-02-13T05:37:40.725Z,12.77
2023-02-13T05:40:28.640Z,13.27
2023-02-13T05:43:16.079Z,12.77
2023-02-13T05:46:07.837Z,11.73
2023-02-13T05:48:55.756Z,12.13
2023-02-13T05:51:43.458Z,12.00
2023-02-13T05:54:31.490Z,13.67
2023-02-13T05:57:19.590Z,11.30
2023-02-13T06:00:07.163Z,11.60
2023-02-13T06:02:55.134Z,11.90
2023-02-13T06:05:42.540Z,11.57
2023-02-13T06:08:30.561Z,11.77
2023-02-13T06:11:18.073Z,11.70
2023-02-13T06:14:05.609Z,13.10
2023-02-13T06:16:53.528Z,11.47
2023-02-13T06:19:41.442Z,12.90
2023-02-13T06:22:28.923Z,13.03
2023-02-13T06:25:16.872Z,12.47
2023-02-13T06:28:05.077Z,12.93
2023-02-13T06:30:52.595Z,12.20
2023-02-13T06:33:39.912Z,13.33
2023-02-13T06:36:27.401Z,13.27
2023-02-13T06:39:15.306Z,12.30
2023-02-13T06:42:03.207Z,11.00
2023-02-13T06:44:50.652Z,11.83
2023-02-13T06:47:41.568Z,11.73
2023-02-13T06:50:29.497Z,12.53
2023-02-13T06:53:16.922Z,11.57
2023-02-13T06:56:07.068Z,13.60
2023-02-13T06:58:54.502Z,11.67
2023-02-13T07:01:41.944Z,11.73
2023-02-13T07:04:29.399Z,11.97
2023-02-13T07:07:16.656Z,12.50
2023-02-13T07:10:04.863Z,11.67
2023-02-13T07:13:05.039Z,15.40
2023-02-13T07:15:52.928Z,13.37
2023-02-13T07:18:40.401Z,11.87
2023-02-13T07:21:28.333Z,11.77
2023-02-13T07:24:16.221Z,11.27
2023-02-13T07:27:03.658Z,12.90
2023-02-13T07:29:51.573Z,11.67
2023-02-13T07:32:39.488Z,13.07
2023-02-13T07:35:26.948Z,11.60
2023-02-13T07:38:14.923Z,12.93
2023-02-13T07:41:03.936Z,13.90
2023-02-13T07:43:51.341Z,11.57
2023-02-13T07:46:39.323Z,12.13
2023-02-13T07:49:26.700Z,11.13
2023-02-13T07:52:14.883Z,12.97
2023-02-13T07:55:02.309Z,12.00
2023-02-13T07:57:50.132Z,14.40
2023-02-13T08:00:37.571Z,16.00
2023-02-13T08:03:25.535Z,14.53
2023-02-13T08:06:12.989Z,15.03
2023-02-13T08:09:19.458Z,14.07
2023-02-13T08:12:08.870Z,12.87
2023-02-13T08:14:56.292Z,12.63
2023-02-13T08:17:44.193Z,11.87
2023-02-13T08:20:31.787Z,12.47
2023-02-13T08:23:19.732Z,12.13
2023-02-13T08:26:07.147Z,12.10
2023-02-13T08:28:55.065Z,12.50
2023-02-13T08:31:43.061Z,12.60
2023-02-13T08:34:30.496Z,12.17
2023-02-13T08:37:18.239Z,13.30
2023-02-13T08:40:06.472Z,13.17
2023-02-13T08:42:54.345Z,12.57
2023-02-13T08:45:43.161Z,12.13
2023-02-13T08:48:30.599Z,13.03
2023-02-13T08:51:18.007Z,12.07
2023-02-13T08:54:05.519Z,12.53
2023-02-13T08:56:52.953Z,12.53
2023-02-13T08:59:40.424Z,12.93
2023-02-13T09:02:27.869Z,11.20
2023-02-13T09:05:15.855Z,11.53
2023-02-13T09:08:04.496Z,12.57
2023-02-13T09:10:56.851Z,13.70
2023-02-13T09:13:44.812Z,14.03
2023-02-13T09:16:33.013Z,12.60
2023-02-13T09:19:20.558Z,12.60
2023-02-13T09:22:08.057Z,13.37
2023-02-13T09:24:55.492Z,11.67
2023-02-13T09:27:43.448Z,12.63
2023-02-13T09:30:31.443Z,13.77
2023-02-13T09:33:18.838Z,12.47
2023-02-13T09:36:10.806Z,14.30
2023-02-13T09:38:58.583Z,13.57
2023-02-13T09:41:48.260Z,13.63
2023-02-13T09:44:39.072Z,12.93
2023-02-13T09:47:32.137Z,12.87
2023-02-13T09:50:22.335Z,14.60
2023-02-13T09:53:18.083Z,12.90
2023-02-13T09:56:11.654Z,12.80
2023-02-13T09:59:01.935Z,13.33
2023-02-13T10:01:51.160Z,13.50
2023-02-13T10:04:48.071Z,14.23
2023-02-13T10:07:54.849Z,14.10
2023-02-13T10:11:00.751Z,12.93
2023-02-13T10:13:48.653Z,12.80
2023-02-13T10:16:38.296Z,12.57
2023-02-13T10:19:28.433Z,13.90
2023-02-13T10:22:18.265Z,13.03
2023-02-13T10:25:15.242Z,13.77
2023-02-13T10:28:11.095Z,14.27
2023-02-13T10:31:10.594Z,14.67
2023-02-13T10:34:01.306Z,13.10
2023-02-13T10:36:49.441Z,13.17
2023-02-13T10:39:36.885Z,13.43
2023-02-13T10:42:31.407Z,13.40
2023-02-13T10:45:25.564Z,14.30
2023-02-13T10:48:22.148Z,13.03
2023-02-13T10:51:14.077Z,14.10
2023-02-13T10:54:17.899Z,13.83
2023-02-13T10:57:18.124Z,13.23
2023-02-13T11:00:06.411Z,13.50
2023-02-13T11:02:57.002Z,13.47
2023-02-13T11:05:44.888Z,13.03
2023-02-13T11:08:37.204Z,12.23
2023-02-13T11:11:34.403Z,12.27
2023-02-13T11:14:26.279Z,12.93
2023-02-13T11:17:18.368Z,12.33
2023-02-13T11:20:08.798Z,11.57
2023-02-13T11:22:56.856Z,11.83
2023-02-13T11:25:54.165Z,12.37
2023-02-13T11:29:08.097Z,12.53
2023-02-13T11:32:08.144Z,11.27
2023-02-13T11:34:56.585Z,12.20
2023-02-13T11:37:44.102Z,11.77
2023-02-13T11:40:32.359Z,12.40
2023-02-13T11:43:48.998Z,12.13
2023-02-13T11:46:50.225Z,11.77
2023-02-13T11:49:41.568Z,12.57
2023-02-13T11:52:30.553Z,11.83
2023-02-13T11:55:27.632Z,13.33
2023-02-13T11:58:15.026Z,12.93
2023-02-13T12:01:24.638Z,12.57
2023-02-13T12:04:16.587Z,12.37
2023-02-13T12:07:24.907Z,12.37
2023-02-13T12:10:35.629Z,11.03
2023-02-13T12:13:28.790Z,11.63
2023-02-13T12:16:25.346Z,12.60
2023-02-13T12:19:15.201Z,12.53
2023-02-13T12:22:02.632Z,13.60
2023-02-13T12:25:15.717Z,14.10
2023-02-13T12:28:03.670Z,13.83
2023-02-13T12:31:03.776Z,13.70
2023-02-13T12:33:51.246Z,14.30
2023-02-13T12:36:41.881Z,14.53
2023-02-13T12:39:36.306Z,14.10
2023-02-13T12:42:36.298Z,14.03
2023-02-13T12:45:30.604Z,14.57
2023-02-13T12:48:18.014Z,14.33
2023-02-13T12:51:24.733Z,14.00
2023-02-13T12:54:31.292Z,13.87
2023-02-13T12:57:33.780Z,13.67
2023-02-13T13:00:40.038Z,13.57
2023-02-13T13:03:37.992Z,14.47
2023-02-13T13:06:38.492Z,13.83
2023-02-13T13:09:29.398Z,14.20
2023-02-13T13:12:27.460Z,13.70
2023-02-13T13:15:15.346Z,14.23
2023-02-13T13:18:06.364Z,15.37
2023-02-13T13:20:59.331Z,14.10
2023-02-13T13:23:49.453Z,14.73
2023-02-13T13:26:40.031Z,14.03
2023-02-13T13:29:30.842Z,14.63
2023-02-13T13:32:21.132Z,13.60
2023-02-13T13:35:14.503Z,14.40
2023-02-13T13:38:06.498Z,14.13
2023-02-13T13:40:59.526Z,12.47
2023-02-13T13:43:50.318Z,12.53
2023-02-13T13:46:56.669Z,13.70
2023-02-13T13:49:43.861Z,14.80
2023-02-13T13:52:37.471Z,15.83
2023-02-13T13:55:43.831Z,14.87
2023-02-13T13:58:34.094Z,15.00
2023-02-13T14:01:23.566Z,15.00
2023-02-13T14:04:30.940Z,13.80
2023-02-13T14:07:23.758Z,14.97
2023-02-13T14:10:26.255Z,14.27
2023-02-13T14:13:29.450Z,14.17
2023-02-13T14:16:36.867Z,13.50
2023-02-13T14:19:30.600Z,14.80
2023-02-13T14:22:22.893Z,12.90
2023-02-13T14:25:22.629Z,14.23
2023-02-13T14:28:27.272Z,12.23
2023-02-13T14:31:28.536Z,12.40
2023-02-13T14:34:16.914Z,11.10
2023-02-13T14:37:21.316Z,12.03
2023-02-13T14:40:12.124Z,12.83
2023-02-13T14:43:08.524Z,12.27
2023-02-13T14:46:14.533Z,11.87
2023-02-13T14:49:28.437Z,10.63
2023-02-13T14:52:27.651Z,11.43
2023-02-13T14:55:17.125Z,10.33
2023-02-13T14:58:09.453Z,10.67
2023-02-13T15:01:03.770Z,10.27
2023-02-13T15:03:58.363Z,10.63
2023-02-13T15:06:46.950Z,11.37
2023-02-13T15:09:39.040Z,9.97
2023-02-13T15:12:34.356Z,11.30
2023-02-13T15:15:26.185Z,10.73
2023-02-13T15:18:22.004Z,12.53
2023-02-13T15:21:14.696Z,11.33
2023-02-13T15:24:02.125Z,11.13
2023-02-13T15:26:55.545Z,10.63
2023-02-13T15:29:54.696Z,10.23
2023-02-13T15:32:42.295Z,10.83
2023-02-13T15:35:32.821Z,11.70
2023-02-13T15:38:21.202Z,10.37
2023-02-13T15:41:11.083Z,10.30
2023-02-13T15:43:59.998Z,9.87
2023-02-13T15:46:48.787Z,10.10
2023-02-13T15:49:40.282Z,10.33
2023-02-13T15:52:32.012Z,9.57
2023-02-13T15:55:26.576Z,10.60
2023-02-13T15:58:14.601Z,11.20
2023-02-13T16:01:05.127Z,9.93
2023-02-13T16:04:00.470Z,10.53
2023-02-13T16:06:48.172Z,10.40
2023-02-13T16:09:37.532Z,11.40
2023-02-13T16:12:26.303Z,10.40
2023-02-13T16:15:16.769Z,11.57
2023-02-13T16:18:06.592Z,11.50
2023-02-13T16:20:55.065Z,11.63
2023-02-13T16:23:45.031Z,11.77
2023-02-13T16:26:32.617Z,11.30
2023-02-13T16:29:21.537Z,13.50
2023-02-13T16:32:13.623Z,12.37
2023-02-13T16:35:18.469Z,13.73
2023-02-13T16:38:22.607Z,12.77
2023-02-13T16:41:10.522Z,12.37
2023-02-13T16:44:07.156Z,11.33
2023-02-13T16:46:56.688Z,12.53
2023-02-13T16:49:49.208Z,12.00
2023-02-13T16:52:36.535Z,12.10
2023-02-13T16:55:23.954Z,12.10
2023-02-13T16:58:12.665Z,12.67
2023-02-13T17:01:01.875Z,12.73
2023-02-13T17:03:49.877Z,12.33
2023-02-13T17:06:37.363Z,11.57
2023-02-13T17:09:24.764Z,13.00
2023-02-13T17:12:14.496Z,11.73
2023-02-13T17:15:02.050Z,12.30
2023-02-13T17:17:50.604Z,12.80
2023-02-13T17:20:40.968Z,13.10
2023-02-13T17:23:28.257Z,12.80
2023-02-13T17:26:16.204Z,12.60
2023-02-13T17:29:03.666Z,14.17
2023-02-13T17:31:53.990Z,13.13
2023-02-13T17:34:41.980Z,12.57
2023-02-13T17:37:30.145Z,13.40
2023-02-13T17:40:19.224Z,13.73
2023-02-13T17:43:06.623Z,13.43
2023-02-13T17:45:53.960Z,13.73
2023-02-13T17:48:42.433Z,13.80
2023-02-13T17:51:30.669Z,13.37
2023-02-13T17:54:17.936Z,12.93
2023-02-13T17:57:06.020Z,13.67
2023-02-13T17:59:53.368Z,14.00
2023-02-13T18:02:42.560Z,14.17
2023-02-13T18:05:31.333Z,13.63
2023-02-13T18:08:20.645Z,13.37
2023-02-13T18:11:12.424Z,15.23
2023-02-13T18:14:00.144Z,13.60
2023-02-13T18:16:47.894Z,15.80
2023-02-13T18:19:35.576Z,13.93
2023-02-13T18:22:22.847Z,14.60
2023-02-13T18:25:10.621Z,15.87
2023-02-13T18:27:58.413Z,14.97
2023-02-13T18:30:46.284Z,15.60
2023-02-13T18:33:34.026Z,15.53
2023-02-13T18:36:21.287Z,16.37
2023-02-13T18:39:08.672Z,15.50
2023-02-13T18:41:56.436Z,15.00
2023-02-13T18:44:43.741Z,16.10
2023-02-13T18:47:31.322Z,16.40
2023-02-13T18:50:18.713Z,16.73
2023-02-13T18:53:06.734Z,17.67
2023-02-13T18:56:01.297Z,17.93
2023-02-13T18:58:48.645Z,17.00
2023-02-13T19:01:36.618Z,16.60
2023-02-13T19:04:24.159Z,18.23
2023-02-13T19:07:11.533Z,16.17
2023-02-13T19:09:59.315Z,15.87
2023-02-13T19:12:46.644Z,16.50
2023-02-13T19:15:36.618Z,17.70
2023-02-13T19:18:24.060Z,18.63
2023-02-13T19:21:12.069Z,18.27
2023-02-13T19:23:59.386Z,17.80
2023-02-13T19:26:47.281Z,19.73
2023-02-13T19:29:34.991Z,17.07
2023-02-13T19:32:22.678Z,15.97
2023-02-13T19:35:09.913Z,17.93
2023-02-13T19:37:57.373Z,16.93
2023-02-13T19:40:46.487Z,19.30
2023-02-13T19:43:33.861Z,18.50
2023-02-13T19:46:23.264Z,16.93
2023-02-13T19:49:11.363Z,16.30
2023-02-13T19:51:58.852Z,18.27
2023-02-13T19:54:46.282Z,17.70
2023-02-13T19:57:34.058Z,17.80
2023-02-13T20:00:21.764Z,17.63
2023-02-13T20:03:09.776Z,18.30
2023-02-13T20:05:57.251Z,17.37
2023-02-13T20:08:45.133Z,16.93
2023-02-13T20:11:32.438Z,17.47
2023-02-13T20:14:19.885Z,16.13
2023-02-13T20:17:07.277Z,18.27
2023-02-13T20:19:55.957Z,15.67
2023-02-13T20:22:43.345Z,16.73
2023-02-13T20:25:39.474Z,16.03
2023-02-13T20:28:26.872Z,18.10
2023-02-13T20:31:23.897Z,15.37
2023-02-13T20:34:11.380Z,16.77
2023-02-13T20:36:59.128Z,16.27
2023-02-13T20:39:46.424Z,15.90
2023-02-13T20:42:34.470Z,16.17
2023-02-13T20:45:21.802Z,14.93
2023-02-13T20:48:09.752Z,17.13
2023-02-13T20:51:01.270Z,15.60
2023-02-13T20:53:48.664Z,16.67
2023-02-13T20:56:38.477Z,16.10
2023-02-13T20:59:25.861Z,14.43
2023-02-13T21:02:14.025Z,15.13
2023-02-13T21:05:01.540Z,15.87
2023-02-13T21:07:49.271Z,15.20
2023-02-13T21:10:37.970Z,15.03
2023-02-13T21:13:25.918Z,14.13
2023-02-13T21:16:14.900Z,16.17
2023-02-13T21:19:05.744Z,15.63
2023-02-13T21:21:53.282Z,15.23
2023-02-13T21:24:41.788Z,14.00
2023-02-13T21:27:29.241Z,14.57
2023-02-13T21:30:16.808Z,16.03
2023-02-13T21:33:04.250Z,15.67
2023-02-13T21:36:00.092Z,15.13
2023-02-13T21:38:47.500Z,15.10
2023-02-13T21:41:35.850Z,14.57
2023-02-13T21:44:23.424Z,13.17
2023-02-13T21:47:10.931Z,13.37
2023-02-13T21:49:58.333Z,15.40
2023-02-13T21:52:45.766Z,15.13
2023-02-13T21:55:33.539Z,13.43
2023-02-13T21:58:20.826Z,14.77
2023-02-13T22:01:25.910Z,15.47
2023-02-13T22:04:14.661Z,14.53
2023-02-13T22:07:01.922Z,14.57
2023-02-13T22:09:50.846Z,15.57
2023-02-13T22:12:38.269Z,14.13
2023-02-13T22:15:26.048Z,14.53
2023-02-13T22:18:13.419Z,14.17
2023-02-13T22:21:07.864Z,13.77
2023-02-13T22:23:55.166Z,13.80
2023-02-13T22:26:45.142Z,14.80
2023-02-13T22:29:32.834Z,13.97
2023-02-13T22:32:20.696Z,14.80
2023-02-13T22:35:09.507Z,13.63
2023-02-13T22:37:57.267Z,14.67
2023-02-13T22:40:44.521Z,15.17
2023-02-13T22:43:31.823Z,14.03
2023-02-13T22:46:26.982Z,14.37
2023-02-13T22:49:14.502Z,15.10
2023-02-13T22:52:01.857Z,14.33
2023-02-13T22:54:50.034Z,14.03
2023-02-13T22:57:37.878Z,12.57
2023-02-13T23:00:25.415Z,13.67
2023-02-13T23:03:13.098Z,16.40
2023-02-13T23:06:00.377Z,13.70
2023-02-13T23:08:52.980Z,14.30
2023-02-13T23:11:58.931Z,13.73
2023-02-13T23:14:46.214Z,14.87
2023-02-13T23:17:52.661Z,14.93
2023-02-13T23:20:43.359Z,16.13
2023-02-13T23:23:30.753Z,14.70
2023-02-13T23:26:18.545Z,14.57
2023-02-13T23:29:05.949Z,14.40
2023-02-13T23:31:53.987Z,13.27
2023-02-13T23:34:41.449Z,13.27
2023-02-13T23:37:29.438Z,13.60
2023-02-13T23:40:17.718Z,14.23
2023-02-13T23:43:04.982Z,13.27
2023-02-13T23:45:52.824Z,13.60
2023-02-13T23:48:40.602Z,13.93
2023-02-13T23:51:27.848Z,14.03
2023-02-13T23:54:16.610Z,13.73
2023-02-13T23:57:04.070Z,14.30
2023-02-13T23:59:52.595Z,14.27
